Time;durP1;ratioP1;P1;durP2;ratioP2;P2;SDS_P1;SDS_P2;PMS_P1;PMS_P2;Temp;Humidity;BMP_temperature;BMP_pressure;BME280_temperature;BME280_humidity;BME280_pressure;Samples;Min_cycle;Max_cycle;Signal;HPM_P1;HPM_P2
2022/11/22 00:00:11;;;;;;;15.55;5.90;;;8.20;93.50;;;;;;5020622;28;20030;-74
2022/11/22 00:02:36;;;;;;;18.23;5.40;;;8.20;93.60;;;;;;5016200;28;20029;-73
2022/11/22 00:05:02;;;;;;;11.02;3.28;;;8.10;93.40;;;;;;5024127;28;20034;-74
2022/11/22 00:07:28;;;;;;;12.40;3.60;;;8.10;93.40;;;;;;5013806;28;20021;-73
2022/11/22 00:13:16;;;;;;;10.63;3.80;;;8.20;93.30;;;;;;5017203;28;20050;-74
2022/11/22 00:15:42;;;;;;;14.88;3.63;;;8.20;93.20;;;;;;5019578;28;20408;-74
2022/11/22 00:18:08;;;;;;;16.00;5.22;;;8.20;93.30;;;;;;5016723;28;20022;-73
2022/11/22 00:20:34;;;;;;;14.20;5.28;;;8.20;93.20;;;;;;5028355;28;20080;-74
2022/11/22 00:22:59;;;;;;;15.13;6.35;;;8.20;93.40;;;;;;5018421;28;20021;-73
2022/11/22 00:25:25;;;;;;;18.80;6.10;;;8.30;93.20;;;;;;5016445;28;20049;-74
2022/11/22 00:27:51;;;;;;;20.55;5.75;;;8.20;93.30;;;;;;5024442;28;20042;-74
2022/11/22 00:30:17;;;;;;;16.65;6.05;;;8.20;93.30;;;;;;5024788;28;20028;-74
2022/11/22 00:32:43;;;;;;;10.77;5.07;;;8.20;93.40;;;;;;5028956;28;20060;-75
2022/11/22 00:35:10;;;;;;;18.40;6.18;;;8.20;93.50;;;;;;5021720;28;20541;-73
2022/11/22 00:37:36;;;;;;;8.70;4.72;;;8.20;93.10;;;;;;5020702;28;20036;-74
2022/11/22 00:40:02;;;;;;;11.90;5.10;;;8.20;93.30;;;;;;5018193;28;20025;-74
2022/11/22 00:42:28;;;;;;;15.52;7.03;;;8.30;93.50;;;;;;5026444;28;20083;-72
2022/11/22 00:44:53;;;;;;;17.02;7.25;;;8.30;93.40;;;;;;5022188;28;20431;-74
2022/11/22 00:47:19;;;;;;;13.43;6.07;;;8.30;93.70;;;;;;5014652;28;20105;-74
2022/11/22 00:49:44;;;;;;;14.82;5.60;;;8.40;93.80;;;;;;5022748;28;20026;-73
2022/11/22 00:52:10;;;;;;;18.92;6.53;;;8.40;93.80;;;;;;5014442;28;20022;-74
2022/11/22 00:54:36;;;;;;;15.98;7.03;;;8.40;93.70;;;;;;5025079;28;20049;-73
2022/11/22 00:57:01;;;;;;;13.10;5.00;;;8.50;93.30;;;;;;5024849;28;20025;-74
2022/11/22 00:59:27;;;;;;;15.82;4.70;;;8.50;93.40;;;;;;5016234;28;20021;-73
2022/11/22 01:01:52;;;;;;;11.93;5.38;;;8.50;93.40;;;;;;5023075;28;20083;-74
2022/11/22 01:04:18;;;;;;;17.52;6.82;;;8.50;93.50;;;;;;5022898;28;20035;-72
2022/11/22 01:06:44;;;;;;;19.38;6.53;;;8.60;93.50;;;;;;5021654;28;20522;-74
2022/11/22 01:09:15;;;;;;;18.50;6.57;;;8.60;93.50;;;;;;5017092;28;20048;-74
2022/11/22 01:11:43;;;;;;;16.70;6.57;;;8.50;93.50;;;;;;5017188;28;20025;-73
2022/11/22 01:14:08;;;;;;;12.55;6.88;;;8.60;93.70;;;;;;5010202;28;20100;-74
2022/11/22 01:16:34;;;;;;;18.38;9.00;;;8.60;93.60;;;;;;5027883;28;20021;-72
2022/11/22 01:19:00;;;;;;;18.23;8.02;;;8.60;93.30;;;;;;5011191;28;20029;-74
2022/11/22 01:21:25;;;;;;;13.63;5.68;;;8.60;93.40;;;;;;5024421;28;20138;-74
2022/11/22 01:23:51;;;;;;;14.18;6.65;;;8.60;93.30;;;;;;5030784;28;20044;-74
2022/11/22 01:26:16;;;;;;;12.65;4.90;;;8.60;93.40;;;;;;5026674;28;20056;-73
2022/11/22 01:28:42;;;;;;;13.38;6.28;;;8.60;93.40;;;;;;5030061;28;20040;-74
2022/11/22 01:31:08;;;;;;;14.85;6.57;;;8.60;93.60;;;;;;5026134;28;20013;-73
2022/11/22 01:33:34;;;;;;;14.75;6.25;;;8.60;93.50;;;;;;5014041;28;20038;-74
2022/11/22 01:36:00;;;;;;;11.45;5.25;;;8.60;93.50;;;;;;5011850;28;20022;-74
2022/11/22 01:38:26;;;;;;;13.82;5.68;;;8.70;93.40;;;;;;5018025;28;20033;-74
2022/11/22 01:40:52;;;;;;;17.70;6.93;;;8.70;93.50;;;;;;5019441;28;20119;-74
2022/11/22 01:43:20;;;;;;;15.80;7.20;;;8.70;93.60;;;;;;5018325;28;20436;-74
2022/11/22 01:46:17;;;;;;;16.45;7.38;;;8.70;93.50;;;;;;5025426;28;20035;-73
2022/11/22 01:48:59;;;;;;;11.70;6.25;;;8.70;93.60;;;;;;5022530;28;20038;-73
2022/11/22 01:51:33;;;;;;;16.15;7.35;;;8.80;93.60;;;;;;5024839;28;20516;-74
2022/11/22 01:54:05;;;;;;;20.40;7.85;;;8.80;93.50;;;;;;5021617;28;20117;-74
2022/11/22 01:56:31;;;;;;;14.75;7.30;;;8.80;93.60;;;;;;5022359;28;20029;-74
2022/11/22 01:59:00;;;;;;;18.42;8.48;;;8.80;93.50;;;;;;5013000;28;20030;-73
2022/11/22 02:01:27;;;;;;;10.48;5.97;;;8.90;93.60;;;;;;5021062;28;20108;-74
2022/11/22 02:03:55;;;;;;;17.73;7.97;;;8.90;93.60;;;;;;5025693;28;20029;-73
2022/11/22 02:06:22;;;;;;;15.07;7.28;;;8.90;93.50;;;;;;5014506;28;20029;-73
2022/11/22 02:08:47;;;;;;;11.88;7.15;;;8.90;93.50;;;;;;5027758;28;20029;-73
2022/11/22 02:11:14;;;;;;;14.38;8.57;;;8.90;93.50;;;;;;5016039;28;20025;-73
2022/11/22 02:13:42;;;;;;;16.08;6.28;;;8.90;93.60;;;;;;5020294;28;20506;-73
2022/11/22 02:16:09;;;;;;;18.80;7.43;;;8.90;93.60;;;;;;5026508;28;20032;-74
2022/11/22 02:18:36;;;;;;;13.95;6.05;;;8.90;93.60;;;;;;5023131;28;20021;-74
2022/11/22 02:21:02;;;;;;;20.17;7.13;;;8.80;93.50;;;;;;5013375;28;20034;-74
2022/11/22 02:23:56;;;;;;;15.43;6.47;;;8.80;93.50;;;;;;5024156;28;20571;-74
2022/11/22 02:26:27;;;;;;;17.52;6.93;;;8.80;93.60;;;;;;5009831;28;20049;-75
2022/11/22 02:28:59;;;;;;;13.98;7.18;;;8.80;93.70;;;;;;5026412;28;20018;-73
2022/11/22 02:31:41;;;;;;;13.77;6.20;;;8.80;93.70;;;;;;5014634;28;20103;-74
2022/11/22 02:34:09;;;;;;;14.40;6.13;;;8.80;93.70;;;;;;5015908;28;20083;-73
2022/11/22 02:36:45;;;;;;;12.75;6.38;;;8.80;93.80;;;;;;5026694;28;20033;-76
2022/11/22 02:39:15;;;;;;;12.70;5.32;;;8.70;93.70;;;;;;5028241;28;20691;-73
2022/11/22 02:41:43;;;;;;;9.75;4.05;;;8.70;93.80;;;;;;5031714;28;20026;-74
2022/11/22 02:44:09;;;;;;;11.98;5.18;;;8.80;93.30;;;;;;5028118;28;21123;-74
2022/11/22 02:46:44;;;;;;;15.70;5.85;;;8.70;93.50;;;;;;5025487;28;20056;-73
2022/11/22 02:49:09;;;;;;;11.98;4.65;;;8.70;93.60;;;;;;5019234;28;20030;-74
2022/11/22 02:51:35;;;;;;;13.05;4.75;;;8.70;93.70;;;;;;5029926;28;20033;-74
2022/11/22 02:54:01;;;;;;;15.30;6.43;;;8.60;93.60;;;;;;5027389;28;20104;-72
2022/11/22 02:56:26;;;;;;;15.32;7.03;;;8.70;93.70;;;;;;5018220;28;20018;-74
2022/11/22 02:58:52;;;;;;;16.23;5.38;;;8.70;93.60;;;;;;5025433;28;20033;-74
2022/11/22 03:01:18;;;;;;;13.45;5.13;;;8.70;93.80;;;;;;5023273;28;20029;-74
2022/11/22 03:03:44;;;;;;;20.10;6.13;;;8.70;93.80;;;;;;5024571;28;20531;-73
2022/11/22 03:06:10;;;;;;;12.60;5.05;;;8.70;93.90;;;;;;5016622;28;20112;-74
2022/11/22 03:08:35;;;;;;;13.93;5.05;;;8.60;93.80;;;;;;5017735;28;20181;-74
2022/11/22 03:11:01;;;;;;;11.75;4.13;;;8.70;93.80;;;;;;5029644;28;20037;-74
2022/11/22 03:13:27;;;;;;;17.08;4.28;;;8.60;93.70;;;;;;5015298;28;20026;-75
2022/11/22 03:15:52;;;;;;;17.95;6.35;;;8.60;93.80;;;;;;5024862;28;20048;-75
2022/11/22 03:18:18;;;;;;;15.25;4.03;;;8.60;93.80;;;;;;5014068;28;20030;-74
2022/11/22 03:20:43;;;;;;;22.13;5.97;;;8.60;93.90;;;;;;5029180;28;20476;-74
2022/11/22 03:23:09;;;;;;;18.83;5.60;;;8.60;93.80;;;;;;5014554;28;20030;-74
2022/11/22 03:25:38;;;;;;;19.80;4.75;;;8.50;93.90;;;;;;5019610;28;20057;-73
2022/11/22 03:28:04;;;;;;;16.50;3.90;;;8.60;93.80;;;;;;5027757;28;20029;-74
2022/11/22 03:30:30;;;;;;;17.77;3.63;;;8.50;93.30;;;;;;5018569;28;20488;-75
2022/11/22 03:32:55;;;;;;;17.17;5.32;;;8.50;93.50;;;;;;5012878;28;20059;-73
2022/11/22 03:35:21;;;;;;;14.52;4.40;;;8.50;93.50;;;;;;5025457;28;20048;-74
2022/11/22 03:37:47;;;;;;;8.45;3.35;;;8.50;93.50;;;;;;5020480;28;20033;-73
2022/11/22 03:40:12;;;;;;;13.07;4.22;;;8.50;93.50;;;;;;5021129;28;20017;-74
2022/11/22 03:42:38;;;;;;;9.70;2.78;;;8.50;93.50;;;;;;5023261;28;20022;-74
2022/11/22 03:45:04;;;;;;;12.70;3.72;;;8.50;93.40;;;;;;5018415;28;20018;-74
2022/11/22 03:47:30;;;;;;;17.52;4.75;;;8.40;93.60;;;;;;5016220;28;20021;-73
2022/11/22 03:49:56;;;;;;;16.42;4.18;;;8.30;93.70;;;;;;5016059;28;20029;-74
2022/11/22 03:52:22;;;;;;;13.60;3.90;;;8.40;93.60;;;;;;5029567;28;20075;-74
2022/11/22 03:54:48;;;;;;;16.55;4.05;;;8.30;93.50;;;;;;5021091;28;20073;-73
2022/11/22 03:57:15;;;;;;;17.63;3.42;;;8.30;93.50;;;;;;5022675;28;20056;-73
2022/11/22 03:59:41;;;;;;;28.73;4.55;;;8.20;93.50;;;;;;5023920;28;20033;-73
2022/11/22 04:02:07;;;;;;;13.93;3.42;;;8.10;93.60;;;;;;5029719;28;20014;-73
2022/11/22 04:04:32;;;;;;;14.30;4.53;;;8.10;93.60;;;;;;5020470;28;20022;-74
2022/11/22 04:06:58;;;;;;;11.75;3.35;;;8.10;93.60;;;;;;5024284;28;20085;-74
2022/11/22 04:09:23;;;;;;;15.35;3.13;;;8.10;93.50;;;;;;5025594;28;20451;-73
2022/11/22 04:11:49;;;;;;;16.55;3.53;;;8.10;93.40;;;;;;5025147;28;20017;-73
2022/11/22 04:16:59;;;;;;;18.67;3.70;;;8.10;93.40;;;;;;5016073;28;20069;-74
2022/11/22 04:19:24;;;;;;;12.98;3.28;;;8.10;93.30;;;;;;5011460;28;20472;-74
2022/11/22 04:21:53;;;;;;;17.48;3.72;;;8.10;93.30;;;;;;5017631;28;20029;-73
2022/11/22 04:27:03;;;;;;;22.25;4.43;;;8.10;93.20;;;;;;5018105;28;20127;-73
2022/11/22 04:29:28;;;;;;;15.10;3.15;;;8.10;93.20;;;;;;5029171;28;20067;-74
2022/11/22 04:34:40;;;;;;;18.88;3.50;;;8.00;93.10;;;;;;5016859;28;20049;-74
2022/11/22 04:37:06;;;;;;;11.95;2.90;;;7.90;93.10;;;;;;5019595;28;20021;-74
2022/11/22 04:39:32;;;;;;;18.23;3.40;;;8.00;93.10;;;;;;5024812;28;20404;-75
2022/11/22 04:44:43;;;;;;;17.23;2.85;;;7.90;93.20;;;;;;5023793;28;20044;-74
2022/11/22 04:47:09;;;;;;;18.38;3.22;;;7.90;93.10;;;;;;5019009;28;20172;-74
2022/11/22 04:49:35;;;;;;;14.75;2.80;;;7.90;93.10;;;;;;5019772;28;20480;-73
2022/11/22 04:54:47;;;;;;;12.38;2.75;;;7.90;93.00;;;;;;5014870;28;20149;-74
2022/11/22 04:57:13;;;;;;;18.42;3.38;;;7.90;92.90;;;;;;5027674;28;20113;-73
2022/11/22 04:59:39;;;;;;;13.15;3.80;;;7.80;92.90;;;;;;5028824;28;20028;-73
2022/11/22 05:02:05;;;;;;;18.27;3.67;;;7.80;92.90;;;;;;5028599;28;20155;-74
2022/11/22 05:04:30;;;;;;;17.00;4.65;;;7.80;92.80;;;;;;5026820;28;20119;-75
2022/11/22 05:06:56;;;;;;;19.77;4.32;;;7.80;92.80;;;;;;5015294;28;20034;-74
2022/11/22 05:09:30;;;;;;;13.68;2.67;;;7.80;92.80;;;;;;5028029;28;20117;-75
2022/11/22 05:11:55;;;;;;;13.60;2.25;;;7.70;92.80;;;;;;5020540;28;20404;-74
2022/11/22 05:14:21;;;;;;;14.02;3.58;;;7.70;92.90;;;;;;5016580;28;20095;-74
2022/11/22 05:16:46;;;;;;;15.00;3.15;;;7.70;93.00;;;;;;5013305;28;20026;-75
2022/11/22 05:19:12;;;;;;;21.10;3.90;;;7.70;92.90;;;;;;5023446;28;20026;-74
2022/11/22 05:21:38;;;;;;;15.57;3.03;;;7.60;93.00;;;;;;5034535;28;20037;-74
2022/11/22 05:24:04;;;;;;;14.52;4.63;;;7.60;93.00;;;;;;5022802;28;20034;-74
2022/11/22 05:26:32;;;;;;;16.65;3.58;;;7.60;93.00;;;;;;5017314;28;20045;-73
2022/11/22 05:29:01;;;;;;;11.60;2.25;;;7.60;93.00;;;;;;5018748;28;20112;-74
2022/11/22 05:31:28;;;;;;;13.43;3.85;;;7.40;93.00;;;;;;5022709;28;20021;-76
2022/11/22 05:33:55;;;;;;;13.43;3.17;;;7.40;93.10;;;;;;5018047;28;20029;-73
2022/11/22 05:36:22;;;;;;;14.73;5.10;;;7.40;93.10;;;;;;5020072;28;20042;-74
2022/11/22 05:38:48;;;;;;;8.98;1.92;;;7.40;93.20;;;;;;5020311;28;20080;-74
2022/11/22 05:41:15;;;;;;;10.15;2.55;;;7.40;93.20;;;;;;5017438;28;20026;-74
2022/11/22 05:43:40;;;;;;;14.60;2.70;;;7.30;93.20;;;;;;5016078;28;20535;-72
2022/11/22 05:46:13;;;;;;;21.58;4.57;;;7.40;93.30;;;;;;5022383;28;20037;-75
2022/11/22 05:48:41;;;;;;;16.05;2.50;;;7.30;93.50;;;;;;5010508;28;20119;-73
2022/11/22 05:51:10;;;;;;;12.35;3.20;;;7.30;93.30;;;;;;5021921;28;20056;-77
2022/11/22 05:53:37;;;;;;;18.17;3.38;;;7.30;93.30;;;;;;5008669;28;20034;-74
2022/11/22 05:56:04;;;;;;;11.75;2.33;;;7.40;93.20;;;;;;5028371;28;20095;-74
2022/11/22 05:58:30;;;;;;;21.27;3.25;;;7.30;93.20;;;;;;5011994;28;20026;-74
2022/11/22 06:01:00;;;;;;;12.60;3.08;;;7.30;93.10;;;;;;5020224;28;20064;-73
2022/11/22 06:03:26;;;;;;;7.65;2.20;;;7.30;93.20;;;;;;5014199;28;20041;-74
2022/11/22 06:05:51;;;;;;;25.88;4.93;;;7.30;93.20;;;;;;5027881;28;20033;-73
2022/11/22 06:08:17;;;;;;;15.13;3.53;;;7.20;93.20;;;;;;5026759;28;20040;-74
2022/11/22 06:10:43;;;;;;;15.50;3.88;;;7.20;93.20;;;;;;5024598;28;20029;-73
2022/11/22 06:13:08;;;;;;;14.40;3.33;;;7.20;93.20;;;;;;5032279;28;20026;-74
2022/11/22 06:15:34;;;;;;;16.42;2.92;;;7.20;93.20;;;;;;5029844;28;20101;-73
2022/11/22 06:17:59;;;;;;;17.13;3.78;;;7.20;93.20;;;;;;5031807;28;20033;-74
2022/11/22 06:20:25;;;;;;;8.75;2.33;;;7.20;93.20;;;;;;5030318;28;20056;-74
2022/11/22 06:22:51;;;;;;;11.88;3.22;;;7.20;93.30;;;;;;5027695;28;20034;-74
2022/11/22 06:25:16;;;;;;;15.20;3.83;;;7.20;93.20;;;;;;5022968;28;20054;-74
2022/11/22 06:27:42;;;;;;;8.93;2.85;;;7.10;93.10;;;;;;5028071;28;20114;-73
2022/11/22 06:30:08;;;;;;;10.07;2.83;;;7.00;93.20;;;;;;5017699;28;20028;-74
2022/11/22 06:32:34;;;;;;;16.23;3.10;;;7.00;93.20;;;;;;5020692;28;20108;-73
2022/11/22 06:35:01;;;;;;;14.13;2.80;;;7.00;93.20;;;;;;5018748;28;20133;-73
2022/11/22 06:37:28;;;;;;;11.02;2.60;;;7.10;93.20;;;;;;5015308;28;20047;-73
2022/11/22 06:39:53;;;;;;;20.50;3.53;;;7.10;93.10;;;;;;5022860;28;20025;-74
2022/11/22 06:42:19;;;;;;;13.85;2.65;;;7.00;93.10;;;;;;5014127;28;20796;-73
2022/11/22 06:44:45;;;;;;;15.85;2.80;;;7.00;93.10;;;;;;5016722;28;20096;-75
2022/11/22 06:47:10;;;;;;;12.15;3.22;;;7.00;93.10;;;;;;5025561;28;20022;-73
2022/11/22 06:49:36;;;;;;;12.30;3.33;;;7.00;93.00;;;;;;5021735;28;20033;-75
2022/11/22 06:52:02;;;;;;;19.48;3.50;;;7.00;93.10;;;;;;5019316;28;20113;-73
2022/11/22 06:54:28;;;;;;;15.90;3.72;;;7.00;93.00;;;;;;5031122;28;20493;-76
2022/11/22 06:56:53;;;;;;;11.27;2.72;;;7.00;93.10;;;;;;5023993;28;20029;-76
2022/11/22 06:59:19;;;;;;;10.02;2.42;;;7.00;93.10;;;;;;5012742;28;20026;-75
2022/11/22 07:01:44;;;;;;;9.95;2.20;;;7.00;93.10;;;;;;5020375;28;20022;-75
2022/11/22 07:04:10;;;;;;;16.73;2.60;;;7.00;93.20;;;;;;5020027;28;20037;-75
2022/11/22 07:06:37;;;;;;;16.02;3.17;;;7.00;93.30;;;;;;5018346;28;20037;-75
2022/11/22 07:09:05;;;;;;;11.48;2.80;;;7.00;93.30;;;;;;5024317;28;20024;-75
2022/11/22 07:11:33;;;;;;;12.30;2.53;;;7.00;93.40;;;;;;5021168;28;20025;-75
2022/11/22 07:14:01;;;;;;;7.60;1.83;;;7.00;93.40;;;;;;5023134;28;20068;-74
2022/11/22 07:16:27;;;;;;;20.77;4.53;;;7.00;93.70;;;;;;5021633;28;20040;-75
2022/11/22 07:18:53;;;;;;;13.98;3.35;;;7.00;93.60;;;;;;5023387;28;20048;-76
2022/11/22 07:21:21;;;;;;;15.02;3.53;;;7.00;93.40;;;;;;5020770;28;20041;-77
2022/11/22 07:23:49;;;;;;;11.70;3.10;;;7.00;93.40;;;;;;5019850;28;20032;-76
2022/11/22 07:26:16;;;;;;;11.75;2.75;;;7.10;93.30;;;;;;5014750;28;20500;-76
2022/11/22 07:28:43;;;;;;;11.07;2.63;;;7.10;93.30;;;;;;5017424;28;20029;-75
2022/11/22 07:31:11;;;;;;;19.55;3.58;;;7.10;93.40;;;;;;5018705;28;20017;-75
2022/11/22 07:33:37;;;;;;;13.57;3.00;;;7.10;93.40;;;;;;5018834;28;20120;-74
2022/11/22 07:36:12;;;;;;;9.52;2.28;;;7.00;93.30;;;;;;5013608;28;20539;-75
2022/11/22 07:38:39;;;;;;;8.23;2.28;;;7.10;93.30;;;;;;5020117;28;20029;-76
2022/11/22 07:41:06;;;;;;;14.43;2.55;;;7.10;93.30;;;;;;5011402;28;20648;-75
2022/11/22 07:43:32;;;;;;;11.13;2.20;;;7.00;93.30;;;;;;5025755;28;20550;-76
2022/11/22 07:45:59;;;;;;;11.98;2.75;;;7.10;93.40;;;;;;5021617;28;20037;-77
2022/11/22 07:48:24;;;;;;;10.77;3.10;;;7.10;93.30;;;;;;5041826;28;20159;-75
2022/11/22 07:50:50;;;;;;;12.90;2.97;;;7.20;93.40;;;;;;5011892;28;20801;-75
2022/11/22 07:53:15;;;;;;;11.35;2.75;;;7.10;93.30;;;;;;5028138;28;20014;-76
2022/11/22 07:55:41;;;;;;;16.00;3.13;;;7.20;93.50;;;;;;5019454;28;20065;-76
2022/11/22 07:58:07;;;;;;;10.32;2.47;;;7.10;93.60;;;;;;5016821;28;20025;-74
2022/11/22 08:00:33;;;;;;;11.02;2.28;;;7.20;93.50;;;;;;5020528;28;20046;-75
2022/11/22 08:02:59;;;;;;;9.57;3.13;;;7.20;93.50;;;;;;5021966;28;20191;-75
2022/11/22 08:05:25;;;;;;;10.05;2.65;;;7.20;93.40;;;;;;5026491;28;20107;-75
2022/11/22 08:07:52;;;;;;;16.90;2.72;;;7.30;93.40;;;;;;5030346;28;20033;-75
2022/11/22 08:10:18;;;;;;;13.10;2.85;;;7.20;93.20;;;;;;5027764;28;20487;-75
2022/11/22 08:12:45;;;;;;;10.25;3.03;;;7.30;93.10;;;;;;5024889;28;20030;-75
2022/11/22 08:15:12;;;;;;;11.75;3.13;;;7.30;93.10;;;;;;5016435;28;20033;-74
2022/11/22 08:17:38;;;;;;;15.68;4.18;;;7.30;93.00;;;;;;5028999;28;20036;-76
2022/11/22 08:20:08;;;;;;;13.13;2.92;;;7.30;93.00;;;;;;5028270;28;20057;-76
2022/11/22 08:22:34;;;;;;;8.00;2.33;;;7.30;93.00;;;;;;5021735;28;20026;-77
2022/11/22 08:24:59;;;;;;;8.10;2.45;;;7.30;92.90;;;;;;5019318;28;20057;-75
2022/11/22 08:27:25;;;;;;;17.55;3.85;;;7.40;93.00;;;;;;5025364;28;20032;-74
2022/11/22 08:29:51;;;;;;;12.30;2.60;;;7.40;92.90;;;;;;5023562;28;20041;-75
2022/11/22 08:32:16;;;;;;;11.45;2.65;;;7.40;92.90;;;;;;5026068;28;20471;-75
2022/11/22 08:34:42;;;;;;;12.77;2.67;;;7.50;92.90;;;;;;5016284;28;20037;-75
2022/11/22 08:37:07;;;;;;;15.60;4.03;;;7.50;92.70;;;;;;5025451;28;20020;-76
2022/11/22 08:39:33;;;;;;;9.75;2.80;;;7.50;92.50;;;;;;5023452;28;20052;-74
2022/11/22 08:41:59;;;;;;;10.13;2.60;;;7.50;92.40;;;;;;5021464;28;20022;-75
2022/11/22 08:44:24;;;;;;;11.13;2.35;;;7.50;92.40;;;;;;5017316;28;20428;-75
2022/11/22 08:46:50;;;;;;;12.90;2.63;;;7.50;92.30;;;;;;5029866;28;20042;-75
2022/11/22 08:49:15;;;;;;;16.70;3.03;;;7.50;92.20;;;;;;5022832;28;20022;-76
2022/11/22 08:51:43;;;;;;;13.20;2.75;;;7.60;92.30;;;;;;5023956;28;20034;-74
2022/11/22 08:54:11;;;;;;;14.07;2.47;;;7.60;92.20;;;;;;5011910;28;20143;-76
2022/11/22 08:56:37;;;;;;;12.20;1.95;;;7.60;92.10;;;;;;5023643;28;20487;-74
2022/11/22 08:59:02;;;;;;;14.30;2.65;;;7.70;92.20;;;;;;5019939;28;20075;-76
2022/11/22 09:01:28;;;;;;;14.82;2.85;;;7.70;92.20;;;;;;5021888;28;20083;-75
2022/11/22 09:03:54;;;;;;;5.13;1.88;;;7.70;92.10;;;;;;5025946;28;20037;-75
2022/11/22 09:06:20;;;;;;;10.77;2.67;;;7.70;92.00;;;;;;5027877;28;20026;-76
2022/11/22 09:08:46;;;;;;;13.38;2.70;;;7.80;91.90;;;;;;5024295;28;20021;-75
2022/11/22 09:11:17;;;;;;;6.75;2.13;;;7.90;91.90;;;;;;5022443;28;20030;-75
2022/11/22 09:13:43;;;;;;;12.18;2.58;;;7.90;91.60;;;;;;5010344;28;20518;-75
2022/11/22 09:16:11;;;;;;;14.75;3.35;;;7.90;91.50;;;;;;5026223;28;20105;-76
2022/11/22 09:18:37;;;;;;;8.23;1.92;;;8.00;91.60;;;;;;5018728;28;20099;-76
2022/11/22 09:21:05;;;;;;;10.07;2.38;;;8.00;91.50;;;;;;5013927;28;20125;-76
2022/11/22 09:23:31;;;;;;;15.18;3.03;;;8.00;91.50;;;;;;5026453;28;20075;-76
2022/11/22 09:26:07;;;;;;;13.48;2.67;;;8.00;91.30;;;;;;5018413;28;20042;-76
2022/11/22 09:28:33;;;;;;;11.75;3.05;;;8.10;91.50;;;;;;5016960;28;20044;-76
2022/11/22 09:31:00;;;;;;;12.10;2.65;;;8.10;91.30;;;;;;5018572;28;20026;-76
2022/11/22 09:33:28;;;;;;;11.50;2.45;;;8.10;91.30;;;;;;5021422;28;20021;-76
2022/11/22 09:36:05;;;;;;;8.65;2.38;;;8.10;91.30;;;;;;5014473;28;20036;-76
2022/11/22 09:38:32;;;;;;;13.38;2.67;;;8.10;91.20;;;;;;5017975;28;20018;-76
2022/11/22 09:40:58;;;;;;;11.63;2.63;;;8.10;91.10;;;;;;5025205;28;20032;-76
2022/11/22 09:43:42;;;;;;;8.25;2.33;;;8.10;91.10;;;;;;5026715;28;20028;-76
2022/11/22 09:46:38;;;;;;;11.82;2.55;;;8.10;91.10;;;;;;5012844;28;20109;-76
2022/11/22 09:49:22;;;;;;;6.80;2.45;;;8.20;91.20;;;;;;5014156;28;20058;-76
2022/11/22 09:52:01;;;;;;;13.00;3.30;;;8.10;91.00;;;;;;5016319;28;20395;-76
2022/11/22 09:54:37;;;;;;;7.40;1.80;;;8.20;90.90;;;;;;5014611;28;20053;-76
2022/11/22 09:57:07;;;;;;;7.35;2.35;;;8.20;91.00;;;;;;5012212;28;20032;-76
2022/11/22 09:59:39;;;;;;;9.65;2.10;;;8.20;91.10;;;;;;5025973;28;20423;-76
2022/11/22 10:02:25;;;;;;;10.93;2.58;;;8.30;90.90;;;;;;5021347;28;20022;-76
2022/11/22 10:05:04;;;;;;;6.63;2.00;;;8.30;90.90;;;;;;5024285;28;20025;-75
2022/11/22 10:08:00;;;;;;;5.95;1.73;;;8.40;90.80;;;;;;5016240;28;20092;-75
2022/11/22 10:10:38;;;;;;;12.18;2.67;;;8.40;90.80;;;;;;5025203;28;20021;-75
2022/11/22 10:13:18;;;;;;;7.50;1.90;;;8.40;90.30;;;;;;5019755;28;20025;-76
2022/11/22 10:16:08;;;;;;;9.98;2.28;;;8.40;90.40;;;;;;5028427;28;20061;-76
2022/11/22 10:18:59;;;;;;;14.93;2.30;;;8.40;90.30;;;;;;5023503;28;20018;-75
2022/11/22 10:21:25;;;;;;;7.65;1.65;;;8.40;90.30;;;;;;5019683;28;20361;-75
2022/11/22 10:23:51;;;;;;;10.68;2.15;;;8.50;90.40;;;;;;5025875;28;20040;-75
2022/11/22 10:26:27;;;;;;;9.05;2.47;;;8.50;90.20;;;;;;5027496;28;20045;-76
2022/11/22 10:28:59;;;;;;;8.45;2.38;;;8.50;90.30;;;;;;5024645;28;20029;-77
2022/11/22 10:31:40;;;;;;;8.05;1.88;;;8.60;90.30;;;;;;5020699;28;20029;-77
2022/11/22 10:34:25;;;;;;;5.32;1.80;;;8.60;90.30;;;;;;5023420;28;20057;-77
2022/11/22 10:37:04;;;;;;;7.53;2.03;;;8.60;90.20;;;;;;5015749;28;20026;-75
2022/11/22 10:40:06;;;;;;;13.70;2.40;;;8.60;90.00;;;;;;5025154;28;20028;-76
2022/11/22 10:42:38;;;;;;;11.98;2.20;;;8.70;90.10;;;;;;5021410;28;20041;-76
2022/11/22 10:45:25;;;;;;;10.88;1.77;;;8.80;90.00;;;;;;5031431;28;20033;-75
2022/11/22 10:48:45;;;;;;;8.60;2.47;;;8.80;90.00;;;;;;5011974;28;20057;-76
2022/11/22 10:51:47;;;;;;;7.93;2.67;;;8.90;89.50;;;;;;5014828;28;20025;-76
2022/11/22 10:54:31;;;;;;;7.13;1.52;;;8.80;89.40;;;;;;5024168;28;20100;-75
2022/11/22 10:56:57;;;;;;;6.72;1.75;;;8.90;89.70;;;;;;5014018;28;20694;-76
2022/11/22 10:59:42;;;;;;;4.65;1.40;;;8.90;89.50;;;;;;5025867;28;20028;-76
2022/11/22 11:02:26;;;;;;;12.25;2.50;;;9.00;89.90;;;;;;5026993;28;20429;-76
2022/11/22 11:04:54;;;;;;;6.68;1.65;;;8.90;88.70;;;;;;5029921;28;20036;-75
2022/11/22 11:07:22;;;;;;;7.35;2.70;;;8.90;89.40;;;;;;5026999;28;20025;-75
2022/11/22 11:09:51;;;;;;;4.95;1.88;;;8.90;89.40;;;;;;5016323;28;20030;-76
2022/11/22 11:12:22;;;;;;;8.90;1.98;;;8.90;89.10;;;;;;5026917;28;20076;-75
2022/11/22 11:14:52;;;;;;;7.40;1.67;;;9.00;89.10;;;;;;5027122;28;20025;-76
2022/11/22 11:17:25;;;;;;;5.43;2.60;;;8.90;88.60;;;;;;5021613;28;20028;-76
2022/11/22 11:19:53;;;;;;;5.90;1.50;;;9.00;89.20;;;;;;5020950;28;20076;-75
2022/11/22 11:22:23;;;;;;;7.72;1.80;;;9.00;89.10;;;;;;5022316;28;20029;-76
2022/11/22 11:24:48;;;;;;;8.48;2.08;;;8.90;88.20;;;;;;5016925;28;20057;-75
2022/11/22 11:27:16;;;;;;;7.07;2.47;;;8.90;88.10;;;;;;5019227;28;20375;-74
2022/11/22 11:30:02;;;;;;;6.10;1.67;;;8.80;88.10;;;;;;5019427;28;20627;-74
2022/11/22 11:32:27;;;;;;;7.60;1.50;;;8.80;88.20;;;;;;5026519;28;20546;-76
2022/11/22 11:35:00;;;;;;;3.90;1.45;;;8.80;88.90;;;;;;5029072;28;20037;-75
2022/11/22 11:37:36;;;;;;;6.95;1.73;;;8.80;89.20;;;;;;5021797;28;20029;-75
2022/11/22 11:40:24;;;;;;;5.03;1.30;;;8.90;88.80;;;;;;5012184;28;20034;-75
2022/11/22 11:43:09;;;;;;;7.88;1.80;;;8.90;88.80;;;;;;5022094;28;20025;-76
2022/11/22 11:45:35;;;;;;;6.60;1.90;;;9.00;88.90;;;;;;5021499;28;20029;-75
2022/11/22 11:48:00;;;;;;;5.47;1.38;;;9.10;88.60;;;;;;5022902;28;20389;-75
2022/11/22 11:50:29;;;;;;;4.97;1.52;;;9.10;88.60;;;;;;5018797;28;20029;-77
2022/11/22 11:53:02;;;;;;;5.03;1.45;;;9.10;87.80;;;;;;5028104;28;20037;-75
2022/11/22 11:55:30;;;;;;;7.95;1.50;;;9.10;87.70;;;;;;5027578;28;20033;-75
2022/11/22 11:57:56;;;;;;;5.07;1.83;;;9.10;87.80;;;;;;5026811;28;20480;-76
2022/11/22 12:00:33;;;;;;;4.32;1.40;;;9.20;88.30;;;;;;5019753;28;20033;-75
2022/11/22 12:03:03;;;;;;;10.25;1.65;;;9.30;87.30;;;;;;5024634;28;20030;-75
2022/11/22 12:05:31;;;;;;;5.95;1.75;;;9.30;87.50;;;;;;5019574;28;20491;-76
2022/11/22 12:07:58;;;;;;;4.20;1.30;;;9.30;86.40;;;;;;5022030;28;20101;-76
2022/11/22 12:10:49;;;;;;;4.35;1.77;;;9.30;86.60;;;;;;5018154;28;20026;-75
2022/11/22 12:13:19;;;;;;;3.28;1.23;;;9.40;86.30;;;;;;5021749;28;20029;-76
2022/11/22 12:15:55;;;;;;;4.47;1.50;;;9.50;85.60;;;;;;5014275;28;20092;-75
2022/11/22 12:18:39;;;;;;;3.08;0.90;;;9.50;85.90;;;;;;5025977;28;20083;-76
2022/11/22 12:21:35;;;;;;;3.42;1.17;;;9.50;86.20;;;;;;5017972;28;20029;-75
2022/11/22 12:24:08;;;;;;;1.52;0.63;;;9.50;85.60;;;;;;5012623;28;20562;-76
2022/11/22 12:26:34;;;;;;;3.10;0.90;;;9.40;85.60;;;;;;5008776;28;20029;-74
2022/11/22 12:29:00;;;;;;;4.97;1.15;;;9.50;86.50;;;;;;5023640;28;20029;-76
2022/11/22 12:31:36;;;;;;;2.67;0.80;;;9.50;85.90;;;;;;5009104;28;20053;-75
2022/11/22 12:34:16;;;;;;;3.90;1.05;;;9.50;85.50;;;;;;5021746;28;20057;-74
2022/11/22 12:36:49;;;;;;;2.67;0.90;;;9.50;86.40;;;;;;5015167;28;20045;-75
2022/11/22 12:39:19;;;;;;;4.95;1.73;;;9.60;85.80;;;;;;5021170;28;20406;-76
2022/11/22 12:41:48;;;;;;;3.78;1.30;;;9.60;86.10;;;;;;5012071;28;20454;-75
2022/11/22 12:44:19;;;;;;;2.47;0.80;;;9.50;85.50;;;;;;5025386;28;20057;-75
2022/11/22 12:46:55;;;;;;;1.92;1.00;;;9.60;85.30;;;;;;5016629;28;20105;-75
2022/11/22 12:49:47;;;;;;;3.17;0.85;;;9.60;85.70;;;;;;5026099;28;20395;-73
2022/11/22 12:52:32;;;;;;;3.17;0.88;;;9.60;85.90;;;;;;5009044;28;20046;-75
2022/11/22 12:55:21;;;;;;;2.67;0.80;;;9.50;85.80;;;;;;5026079;28;20040;-75
2022/11/22 12:57:51;;;;;;;4.20;0.80;;;9.50;85.60;;;;;;5026792;28;20116;-75
2022/11/22 13:00:19;;;;;;;5.43;1.27;;;9.50;86.10;;;;;;5025487;28;20033;-75
2022/11/22 13:03:12;;;;;;;3.83;0.80;;;9.50;85.90;;;;;;5027779;28;20017;-75
2022/11/22 13:05:54;;;;;;;2.40;0.73;;;9.50;86.40;;;;;;5028031;28;20021;-75
2022/11/22 13:08:28;;;;;;;3.58;1.17;;;9.50;86.40;;;;;;5022212;28;20048;-75
2022/11/22 13:11:09;;;;;;;3.75;1.10;;;9.40;86.40;;;;;;5013944;28;20022;-75
2022/11/22 13:13:45;;;;;;;2.55;0.80;;;9.50;86.10;;;;;;5012531;28;20037;-75
2022/11/22 13:16:11;;;;;;;3.65;0.80;;;9.50;86.00;;;;;;5009815;28;20518;-75
2022/11/22 13:18:49;;;;;;;2.25;1.10;;;9.50;86.40;;;;;;5021850;28;20439;-76